Accueil
METAR-TAF:

METAR-TAF

Aéroports :

Wiener Neustadt, Autriche

latitude: 47-50-36N, longitude: 016-15-29E, altitude: 272 m

Observation

Le bulletin a été fait il y a 58 minutes, à 10:00 UTC
Vent 8 kt de nord-ouest avec des rafales jusqu'à 18 kt
Température
Pression

METAR: LOAN 121000Z 32008G18KT 40KM FEW040CU

Heure: 12:58 (10:58 UTC)

Prévision

Le bulletin a été fait il y a 2 heures et 58 minutes, à 08:00 UTC
Prévision valable du 12 à 09 UTC au 12 à 18 UTC
Vent 10 kt de nord-ouest
Visibilité 10 km ou plus
Quelques nuages à une hauteur de 5000 ft
Evoluant progressivement
du 12 à 10 UTC au 12 à 12 UTC
Quelques nuages à une hauteur de 5000 ft
Quelques nuages à une hauteur de 5000 ft, Cumulonimbus.
Temporairement
du 12 à 13 UTC au 12 à 17 UTC
Visibilité: 2000 m
orage, pluie

TAF: LOAN 120800Z 1209/1218 32010KT 9999 FEW050 BECMG 1210/1212 FEW050 FEW050CB TEMPO 1213/1217 2000 TSRA

Observations et prévisions météorologiques de plus de 4000 aéroports (messages METAR et TAF).

Les stations disponibles sont représentées par des disques jaunes et rouges sur la carte.

Passer la souris dessus pour voir le nom de la station.

Cliquer dessus pour voir les observations et prévisions météorologiques.

Pour changer de carte: cliquez sur les boutons verts avec une croix noire pour zoomer, sur le bouton vert avec un tiret pour effectuer un zoom arrière, ou sur les flèches vertes pour les cartes adjacentes.


METAR-TAF: